sensor_id;sensor_type;location;lat;lon;timestamp;P1;durP1;ratioP1;P2;durP2;ratioP2
54143;SDS011;40050;47.324;18.792;2022-10-22T00:00:11;12.62;;;7.06;;
54143;SDS011;40050;47.324;18.792;2022-10-22T00:02:10;16.38;;;8.16;;
54143;SDS011;40050;47.324;18.792;2022-10-22T00:04:11;14.17;;;7.56;;
54143;SDS011;40050;47.324;18.792;2022-10-22T00:06:12;14.15;;;8.06;;
54143;SDS011;40050;47.324;18.792;2022-10-22T00:08:13;16.96;;;7.76;;
54143;SDS011;40050;47.324;18.792;2022-10-22T00:10:14;13.88;;;7.86;;
54143;SDS011;40050;47.324;18.792;2022-10-22T00:12:15;15.80;;;7.26;;
54143;SDS011;40050;47.324;18.792;2022-10-22T00:14:19;13.77;;;7.76;;
54143;SDS011;40050;47.324;18.792;2022-10-22T00:16:18;15.78;;;8.35;;
54143;SDS011;40050;47.324;18.792;2022-10-22T00:18:20;14.90;;;8.05;;
54143;SDS011;40050;47.324;18.792;2022-10-22T00:20:21;13.36;;;7.46;;
54143;SDS011;40050;47.324;18.792;2022-10-22T00:22:22;13.07;;;7.56;;
54143;SDS011;40050;47.324;18.792;2022-10-22T00:24:23;14.42;;;7.36;;
54143;SDS011;40050;47.324;18.792;2022-10-22T00:26:24;12.29;;;7.85;;
54143;SDS011;40050;47.324;18.792;2022-10-22T00:28:25;14.79;;;8.15;;
54143;SDS011;40050;47.324;18.792;2022-10-22T00:30:26;13.06;;;7.45;;
54143;SDS011;40050;47.324;18.792;2022-10-22T00:32:27;16.23;;;8.15;;
54143;SDS011;40050;47.324;18.792;2022-10-22T00:34:28;14.49;;;7.35;;
54143;SDS011;40050;47.324;18.792;2022-10-22T00:36:28;15.92;;;8.05;;
54143;SDS011;40050;47.324;18.792;2022-10-22T00:38:29;12.94;;;7.65;;
54143;SDS011;40050;47.324;18.792;2022-10-22T00:40:30;11.70;;;7.35;;
54143;SDS011;40050;47.324;18.792;2022-10-22T00:42:31;15.23;;;8.44;;
54143;SDS011;40050;47.324;18.792;2022-10-22T00:45:00;14.74;;;8.34;;
54143;SDS011;40050;47.324;18.792;2022-10-22T00:46:35;15.71;;;8.74;;
54143;SDS011;40050;47.324;18.792;2022-10-22T00:48:55;13.70;;;7.75;;
54143;SDS011;40050;47.324;18.792;2022-10-22T00:51:02;14.75;;;8.34;;
54143;SDS011;40050;47.324;18.792;2022-10-22T00:53:03;14.46;;;8.64;;
54143;SDS011;40050;47.324;18.792;2022-10-22T00:55:04;17.14;;;8.44;;
54143;SDS011;40050;47.324;18.792;2022-10-22T00:57:05;15.22;;;8.44;;
54143;SDS011;40050;47.324;18.792;2022-10-22T00:59:09;14.27;;;8.15;;
54143;SDS011;40050;47.324;18.792;2022-10-22T01:01:12;15.22;;;8.24;;
54143;SDS011;40050;47.324;18.792;2022-10-22T01:03:11;16.56;;;8.84;;
54143;SDS011;40050;47.324;18.792;2022-10-22T01:05:12;15.80;;;8.74;;
54143;SDS011;40050;47.324;18.792;2022-10-22T01:07:16;17.62;;;8.64;;
54143;SDS011;40050;47.324;18.792;2022-10-22T01:09:37;15.99;;;8.94;;
54143;SDS011;40050;47.324;18.792;2022-10-22T01:11:52;15.41;;;8.94;;
54143;SDS011;40050;47.324;18.792;2022-10-22T01:14:06;16.66;;;9.14;;
54143;SDS011;40050;47.324;18.792;2022-10-22T01:16:10;18.68;;;9.44;;
54143;SDS011;40050;47.324;18.792;2022-10-22T01:18:22;15.33;;;8.54;;
54143;SDS011;40050;47.324;18.792;2022-10-22T01:21:03;16.46;;;9.04;;
54143;SDS011;40050;47.324;18.792;2022-10-22T01:25:16;16.07;;;8.54;;
54143;SDS011;40050;47.324;18.792;2022-10-22T01:28:06;18.17;;;9.53;;
54143;SDS011;40050;47.324;18.792;2022-10-22T01:30:00;17.59;;;10.23;;
54143;SDS011;40050;47.324;18.792;2022-10-22T01:32:00;18.15;;;9.73;;
54143;SDS011;40050;47.324;18.792;2022-10-22T01:34:01;17.57;;;9.63;;
54143;SDS011;40050;47.324;18.792;2022-10-22T01:36:07;17.17;;;8.83;;
54143;SDS011;40050;47.324;18.792;2022-10-22T01:38:19;16.29;;;9.03;;
54143;SDS011;40050;47.324;18.792;2022-10-22T01:40:17;17.61;;;8.83;;
54143;SDS011;40050;47.324;18.792;2022-10-22T01:42:18;16.94;;;9.82;;
54143;SDS011;40050;47.324;18.792;2022-10-22T01:46:23;18.73;;;9.72;;
54143;SDS011;40050;47.324;18.792;2022-10-22T01:48:55;16.35;;;9.62;;
54143;SDS011;40050;47.324;18.792;2022-10-22T01:51:12;19.50;;;10.02;;
54143;SDS011;40050;47.324;18.792;2022-10-22T01:53:32;19.66;;;10.61;;
54143;SDS011;40050;47.324;18.792;2022-10-22T02:00:11;18.24;;;10.21;;
54143;SDS011;40050;47.324;18.792;2022-10-22T02:04:29;18.07;;;10.02;;
54143;SDS011;40050;47.324;18.792;2022-10-22T02:06:29;15.81;;;8.83;;
54143;SDS011;40050;47.324;18.792;2022-10-22T02:08:38;16.95;;;9.33;;
54143;SDS011;40050;47.324;18.792;2022-10-22T02:10:41;15.53;;;9.23;;
54143;SDS011;40050;47.324;18.792;2022-10-22T02:12:42;16.29;;;9.43;;
54143;SDS011;40050;47.324;18.792;2022-10-22T02:14:45;17.25;;;9.13;;
54143;SDS011;40050;47.324;18.792;2022-10-22T02:16:50;17.83;;;10.32;;
54143;SDS011;40050;47.324;18.792;2022-10-22T02:18:53;17.15;;;10.32;;
54143;SDS011;40050;47.324;18.792;2022-10-22T02:20:57;15.80;;;9.72;;
54143;SDS011;40050;47.324;18.792;2022-10-22T02:22:59;18.78;;;10.22;;
54143;SDS011;40050;47.324;18.792;2022-10-22T02:24:59;18.20;;;10.02;;
54143;SDS011;40050;47.324;18.792;2022-10-22T02:27:21;19.71;;;10.32;;
54143;SDS011;40050;47.324;18.792;2022-10-22T02:29:27;17.20;;;9.82;;
54143;SDS011;40050;47.324;18.792;2022-10-22T02:31:33;19.46;;;9.71;;
54143;SDS011;40050;47.324;18.792;2022-10-22T02:33:36;17.19;;;9.72;;
54143;SDS011;40050;47.324;18.792;2022-10-22T02:35:37;17.65;;;10.41;;
54143;SDS011;40050;47.324;18.792;2022-10-22T02:37:39;16.89;;;9.81;;
54143;SDS011;40050;47.324;18.792;2022-10-22T02:39:41;17.09;;;9.81;;
54143;SDS011;40050;47.324;18.792;2022-10-22T02:41:42;18.03;;;10.21;;
54143;SDS011;40050;47.324;18.792;2022-10-22T02:43:43;17.64;;;10.01;;
54143;SDS011;40050;47.324;18.792;2022-10-22T02:45:44;17.36;;;10.01;;
54143;SDS011;40050;47.324;18.792;2022-10-22T02:47:44;17.26;;;10.21;;
54143;SDS011;40050;47.324;18.792;2022-10-22T02:49:45;17.36;;;9.71;;
54143;SDS011;40050;47.324;18.792;2022-10-22T02:51:46;19.94;;;10.21;;
54143;SDS011;40050;47.324;18.792;2022-10-22T02:53:47;17.47;;;10.31;;
54143;SDS011;40050;47.324;18.792;2022-10-22T02:55:48;15.67;;;9.42;;
54143;SDS011;40050;47.324;18.792;2022-10-22T02:57:49;21.20;;;9.92;;
54143;SDS011;40050;47.324;18.792;2022-10-22T02:59:50;15.49;;;9.22;;
54143;SDS011;40050;47.324;18.792;2022-10-22T03:01:51;14.93;;;10.02;;
54143;SDS011;40050;47.324;18.792;2022-10-22T03:03:52;17.11;;;9.82;;
54143;SDS011;40050;47.324;18.792;2022-10-22T03:05:52;17.60;;;10.12;;
54143;SDS011;40050;47.324;18.792;2022-10-22T03:07:53;17.13;;;9.72;;
54143;SDS011;40050;47.324;18.792;2022-10-22T03:09:54;18.26;;;10.02;;
54143;SDS011;40050;47.324;18.792;2022-10-22T03:11:55;19.29;;;9.42;;
54143;SDS011;40050;47.324;18.792;2022-10-22T03:13:56;15.38;;;9.42;;
54143;SDS011;40050;47.324;18.792;2022-10-22T03:15:57;15.94;;;9.42;;
54143;SDS011;40050;47.324;18.792;2022-10-22T03:17:58;16.30;;;10.01;;
54143;SDS011;40050;47.324;18.792;2022-10-22T03:19:59;15.83;;;9.31;;
54143;SDS011;40050;47.324;18.792;2022-10-22T03:22:12;16.86;;;9.71;;
54143;SDS011;40050;47.324;18.792;2022-10-22T03:24:14;16.76;;;9.91;;
54143;SDS011;40050;47.324;18.792;2022-10-22T03:26:14;19.68;;;9.61;;
54143;SDS011;40050;47.324;18.792;2022-10-22T03:28:15;17.41;;;9.71;;
54143;SDS011;40050;47.324;18.792;2022-10-22T03:30:16;17.61;;;9.41;;
54143;SDS011;40050;47.324;18.792;2022-10-22T03:32:17;18.28;;;9.31;;
54143;SDS011;40050;47.324;18.792;2022-10-22T03:34:18;17.33;;;9.21;;
54143;SDS011;40050;47.324;18.792;2022-10-22T03:36:19;16.20;;;9.51;;
54143;SDS011;40050;47.324;18.792;2022-10-22T03:38:21;16.47;;;10.00;;
54143;SDS011;40050;47.324;18.792;2022-10-22T03:40:22;15.61;;;9.71;;
54143;SDS011;40050;47.324;18.792;2022-10-22T03:42:24;15.14;;;9.11;;
54143;SDS011;40050;47.324;18.792;2022-10-22T03:44:25;17.12;;;9.71;;
54143;SDS011;40050;47.324;18.792;2022-10-22T03:46:26;15.81;;;9.61;;
54143;SDS011;40050;47.324;18.792;2022-10-22T03:48:27;16.28;;;10.20;;
54143;SDS011;40050;47.324;18.792;2022-10-22T03:50:28;15.89;;;9.71;;
54143;SDS011;40050;47.324;18.792;2022-10-22T03:52:33;17.12;;;10.10;;
54143;SDS011;40050;47.324;18.792;2022-10-22T03:54:30;18.54;;;11.39;;
54143;SDS011;40050;47.324;18.792;2022-10-22T03:56:30;19.85;;;10.50;;
54143;SDS011;40050;47.324;18.792;2022-10-22T03:58:31;16.91;;;10.00;;
54143;SDS011;40050;47.324;18.792;2022-10-22T04:00:34;17.27;;;10.89;;
54143;SDS011;40050;47.324;18.792;2022-10-22T04:02:35;19.35;;;10.49;;
54143;SDS011;40050;47.324;18.792;2022-10-22T04:04:36;20.94;;;10.59;;
54143;SDS011;40050;47.324;18.792;2022-10-22T04:06:41;25.48;;;12.07;;
54143;SDS011;40050;47.324;18.792;2022-10-22T04:08:42;22.74;;;12.97;;
54143;SDS011;40050;47.324;18.792;2022-10-22T04:10:49;22.47;;;12.57;;
54143;SDS011;40050;47.324;18.792;2022-10-22T04:12:46;20.23;;;10.99;;
54143;SDS011;40050;47.324;18.792;2022-10-22T04:14:44;17.32;;;10.70;;
54143;SDS011;40050;47.324;18.792;2022-10-22T04:16:47;17.41;;;9.90;;
54143;SDS011;40050;47.324;18.792;2022-10-22T04:18:48;20.44;;;9.90;;
54143;SDS011;40050;47.324;18.792;2022-10-22T04:20:50;19.11;;;9.61;;
54143;SDS011;40050;47.324;18.792;2022-10-22T04:22:50;18.44;;;9.61;;
54143;SDS011;40050;47.324;18.792;2022-10-22T04:24:51;17.78;;;9.90;;
54143;SDS011;40050;47.324;18.792;2022-10-22T04:26:52;19.29;;;10.30;;
54143;SDS011;40050;47.324;18.792;2022-10-22T04:28:53;18.81;;;10.79;;
54143;SDS011;40050;47.324;18.792;2022-10-22T04:30:54;17.48;;;10.40;;
54143;SDS011;40050;47.324;18.792;2022-10-22T04:32:55;15.96;;;10.00;;
54143;SDS011;40050;47.324;18.792;2022-10-22T04:34:59;19.16;;;10.10;;
54143;SDS011;40050;47.324;18.792;2022-10-22T04:37:00;19.82;;;10.79;;
54143;SDS011;40050;47.324;18.792;2022-10-22T04:39:02;18.40;;;10.29;;
54143;SDS011;40050;47.324;18.792;2022-10-22T04:43:04;15.48;;;9.70;;
54143;SDS011;40050;47.324;18.792;2022-10-22T04:45:05;18.04;;;10.00;;
54143;SDS011;40050;47.324;18.792;2022-10-22T04:47:05;18.72;;;9.31;;
54143;SDS011;40050;47.324;18.792;2022-10-22T04:49:07;16.46;;;9.80;;
54143;SDS011;40050;47.324;18.792;2022-10-22T04:51:08;18.15;;;9.61;;
54143;SDS011;40050;47.324;18.792;2022-10-22T04:53:08;17.68;;;10.30;;
54143;SDS011;40050;47.324;18.792;2022-10-22T04:55:09;18.14;;;9.70;;
54143;SDS011;40050;47.324;18.792;2022-10-22T04:57:10;15.30;;;9.60;;
54143;SDS011;40050;47.324;18.792;2022-10-22T04:59:11;16.62;;;9.21;;
54143;SDS011;40050;47.324;18.792;2022-10-22T05:01:20;20.01;;;9.70;;
54143;SDS011;40050;47.324;18.792;2022-10-22T05:03:13;19.35;;;9.90;;
54143;SDS011;40050;47.324;18.792;2022-10-22T05:05:14;17.72;;;9.60;;
54143;SDS011;40050;47.324;18.792;2022-10-22T05:07:15;17.91;;;10.88;;
54143;SDS011;40050;47.324;18.792;2022-10-22T05:09:17;19.70;;;10.39;;
54143;SDS011;40050;47.324;18.792;2022-10-22T05:11:19;17.62;;;10.49;;
54143;SDS011;40050;47.324;18.792;2022-10-22T05:13:18;17.90;;;10.09;;
54143;SDS011;40050;47.324;18.792;2022-10-22T05:15:19;19.79;;;10.59;;
54143;SDS011;40050;47.324;18.792;2022-10-22T05:17:21;17.70;;;10.68;;
54143;SDS011;40050;47.324;18.792;2022-10-22T05:19:23;18.72;;;11.08;;
54143;SDS011;40050;47.324;18.792;2022-10-22T05:21:23;20.22;;;11.08;;
54143;SDS011;40050;47.324;18.792;2022-10-22T05:23:24;17.58;;;10.88;;
54143;SDS011;40050;47.324;18.792;2022-10-22T05:25:27;17.29;;;10.88;;
54143;SDS011;40050;47.324;18.792;2022-10-22T05:27:29;20.01;;;11.27;;
54143;SDS011;40050;47.324;18.792;2022-10-22T05:29:30;23.11;;;11.76;;
54143;SDS011;40050;47.324;18.792;2022-10-22T05:31:31;19.91;;;10.97;;
54143;SDS011;40050;47.324;18.792;2022-10-22T05:33:33;19.44;;;10.28;;
54143;SDS011;40050;47.324;18.792;2022-10-22T05:35:33;16.89;;;10.47;;
54143;SDS011;40050;47.324;18.792;2022-10-22T05:37:34;17.44;;;10.57;;
54143;SDS011;40050;47.324;18.792;2022-10-22T05:39:35;17.44;;;11.56;;
54143;SDS011;40050;47.324;18.792;2022-10-22T05:41:38;19.02;;;10.87;;
54143;SDS011;40050;47.324;18.792;2022-10-22T05:43:39;18.63;;;10.96;;
54143;SDS011;40050;47.324;18.792;2022-10-22T05:45:40;18.53;;;10.66;;
54143;SDS011;40050;47.324;18.792;2022-10-22T05:47:41;20.86;;;10.96;;
54143;SDS011;40050;47.324;18.792;2022-10-22T05:49:43;18.71;;;11.26;;
54143;SDS011;40050;47.324;18.792;2022-10-22T05:51:44;19.28;;;11.06;;
54143;SDS011;40050;47.324;18.792;2022-10-22T05:53:49;18.42;;;11.16;;
54143;SDS011;40050;47.324;18.792;2022-10-22T05:55:46;18.60;;;10.07;;
54143;SDS011;40050;47.324;18.792;2022-10-22T05:57:47;15.32;;;10.36;;
54143;SDS011;40050;47.324;18.792;2022-10-22T05:59:48;17.46;;;10.76;;
54143;SDS011;40050;47.324;18.792;2022-10-22T06:01:53;16.99;;;10.16;;
54143;SDS011;40050;47.324;18.792;2022-10-22T06:03:55;20.74;;;11.45;;
54143;SDS011;40050;47.324;18.792;2022-10-22T06:05:55;20.18;;;11.65;;
54143;SDS011;40050;47.324;18.792;2022-10-22T06:07:56;19.62;;;11.74;;
54143;SDS011;40050;47.324;18.792;2022-10-22T06:09:59;22.83;;;11.93;;
54143;SDS011;40050;47.324;18.792;2022-10-22T06:12:00;19.47;;;11.93;;
54143;SDS011;40050;47.324;18.792;2022-10-22T06:14:01;19.57;;;12.72;;
54143;SDS011;40050;47.324;18.792;2022-10-22T06:16:02;25.07;;;13.31;;
54143;SDS011;40050;47.324;18.792;2022-10-22T06:18:05;23.76;;;13.61;;
54143;SDS011;40050;47.324;18.792;2022-10-22T06:20:04;28.89;;;17.16;;
54143;SDS011;40050;47.324;18.792;2022-10-22T06:22:04;25.56;;;15.09;;
54143;SDS011;40050;47.324;18.792;2022-10-22T06:24:06;24.44;;;13.42;;
54143;SDS011;40050;47.324;18.792;2022-10-22T06:26:07;24.69;;;14.10;;
54143;SDS011;40050;47.324;18.792;2022-10-22T06:28:08;32.36;;;17.95;;
54143;SDS011;40050;47.324;18.792;2022-10-22T06:30:09;29.48;;;16.48;;
54143;SDS011;40050;47.324;18.792;2022-10-22T06:32:09;30.50;;;16.67;;
54143;SDS011;40050;47.324;18.792;2022-10-22T06:34:11;30.85;;;17.06;;
54143;SDS011;40050;47.324;18.792;2022-10-22T06:36:12;26.64;;;16.86;;
54143;SDS011;40050;47.324;18.792;2022-10-22T06:38:12;28.93;;;15.77;;
54143;SDS011;40050;47.324;18.792;2022-10-22T06:40:14;25.41;;;15.48;;
54143;SDS011;40050;47.324;18.792;2022-10-22T06:42:15;27.92;;;16.27;;
54143;SDS011;40050;47.324;18.792;2022-10-22T06:44:17;24.57;;;14.89;;
54143;SDS011;40050;47.324;18.792;2022-10-22T06:46:18;25.04;;;15.58;;
54143;SDS011;40050;47.324;18.792;2022-10-22T06:48:18;25.88;;;15.48;;
54143;SDS011;40050;47.324;18.792;2022-10-22T06:50:19;27.26;;;15.69;;
54143;SDS011;40050;47.324;18.792;2022-10-22T06:52:21;23.92;;;14.41;;
54143;SDS011;40050;47.324;18.792;2022-10-22T06:54:23;24.88;;;14.91;;
54143;SDS011;40050;47.324;18.792;2022-10-22T06:56:24;26.22;;;14.52;;
54143;SDS011;40050;47.324;18.792;2022-10-22T06:58:25;23.50;;;13.63;;
54143;SDS011;40050;47.324;18.792;2022-10-22T07:00:26;24.36;;;14.32;;
54143;SDS011;40050;47.324;18.792;2022-10-22T07:02:27;22.86;;;13.83;;
54143;SDS011;40050;47.324;18.792;2022-10-22T07:04:28;24.47;;;14.82;;
54143;SDS011;40050;47.324;18.792;2022-10-22T07:06:32;25.05;;;15.02;;
54143;SDS011;40050;47.324;18.792;2022-10-22T07:08:33;27.03;;;14.92;;
54143;SDS011;40050;47.324;18.792;2022-10-22T07:10:34;26.16;;;14.72;;
54143;SDS011;40050;47.324;18.792;2022-10-22T07:12:35;25.59;;;15.31;;
54143;SDS011;40050;47.324;18.792;2022-10-22T07:14:37;24.01;;;14.03;;
54143;SDS011;40050;47.324;18.792;2022-10-22T07:16:38;24.81;;;14.43;;
54143;SDS011;40050;47.324;18.792;2022-10-22T07:18:39;23.81;;;13.16;;
54143;SDS011;40050;47.324;18.792;2022-10-22T07:20:40;20.44;;;12.56;;
54143;SDS011;40050;47.324;18.792;2022-10-22T07:22:41;24.40;;;12.27;;
54143;SDS011;40050;47.324;18.792;2022-10-22T07:24:42;17.81;;;11.28;;
54143;SDS011;40050;47.324;18.792;2022-10-22T07:26:44;20.28;;;10.79;;
54143;SDS011;40050;47.324;18.792;2022-10-22T07:28:45;18.67;;;10.50;;
54143;SDS011;40050;47.324;18.792;2022-10-22T07:30:46;18.35;;;10.21;;
54143;SDS011;40050;47.324;18.792;2022-10-22T07:32:47;15.32;;;9.82;;
54143;SDS011;40050;47.324;18.792;2022-10-22T07:34:48;18.45;;;10.33;;
54143;SDS011;40050;47.324;18.792;2022-10-22T07:36:49;17.17;;;10.52;;
54143;SDS011;40050;47.324;18.792;2022-10-22T07:38:54;16.67;;;10.03;;
54143;SDS011;40050;47.324;18.792;2022-10-22T07:40:53;16.55;;;10.33;;
54143;SDS011;40050;47.324;18.792;2022-10-22T07:42:51;19.52;;;9.83;;
54143;SDS011;40050;47.324;18.792;2022-10-22T07:44:52;20.39;;;10.44;;
54143;SDS011;40050;47.324;18.792;2022-10-22T07:46:54;17.03;;;10.14;;
54143;SDS011;40050;47.324;18.792;2022-10-22T07:48:55;17.81;;;10.64;;
54143;SDS011;40050;47.324;18.792;2022-10-22T07:50:56;19.48;;;11.54;;
54143;SDS011;40050;47.324;18.792;2022-10-22T07:52:57;16.80;;;10.45;;
54143;SDS011;40050;47.324;18.792;2022-10-22T07:54:58;17.46;;;9.86;;
54143;SDS011;40050;47.324;18.792;2022-10-22T07:56:59;18.57;;;10.56;;
54143;SDS011;40050;47.324;18.792;2022-10-22T07:59:00;19.07;;;10.37;;
54143;SDS011;40050;47.324;18.792;2022-10-22T08:01:01;17.59;;;9.47;;
54143;SDS011;40050;47.324;18.792;2022-10-22T08:03:11;19.95;;;10.07;;
54143;SDS011;40050;47.324;18.792;2022-10-22T08:05:11;15.96;;;9.57;;
54143;SDS011;40050;47.324;18.792;2022-10-22T08:07:25;16.89;;;9.47;;
54143;SDS011;40050;47.324;18.792;2022-10-22T08:09:17;21.20;;;10.17;;
54143;SDS011;40050;47.324;18.792;2022-10-22T08:11:20;16.55;;;9.58;;
54143;SDS011;40050;47.324;18.792;2022-10-22T08:13:25;16.86;;;10.08;;
54143;SDS011;40050;47.324;18.792;2022-10-22T08:15:26;17.96;;;9.68;;
54143;SDS011;40050;47.324;18.792;2022-10-22T08:17:27;21.01;;;10.28;;
54143;SDS011;40050;47.324;18.792;2022-10-22T08:19:27;17.18;;;9.68;;
54143;SDS011;40050;47.324;18.792;2022-10-22T08:21:29;15.50;;;9.68;;
54143;SDS011;40050;47.324;18.792;2022-10-22T08:23:29;18.49;;;9.48;;
54143;SDS011;40050;47.324;18.792;2022-10-22T08:25:30;18.31;;;9.99;;
54143;SDS011;40050;47.324;18.792;2022-10-22T08:27:31;18.92;;;10.29;;
54143;SDS011;40050;47.324;18.792;2022-10-22T08:29:32;17.45;;;9.99;;
54143;SDS011;40050;47.324;18.792;2022-10-22T08:31:37;17.74;;;9.99;;
54143;SDS011;40050;47.324;18.792;2022-10-22T08:33:38;17.34;;;10.29;;
54143;SDS011;40050;47.324;18.792;2022-10-22T08:35:39;23.16;;;10.39;;
54143;SDS011;40050;47.324;18.792;2022-10-22T08:37:40;18.13;;;10.19;;
54143;SDS011;40050;47.324;18.792;2022-10-22T08:39:41;17.53;;;10.78;;
54143;SDS011;40050;47.324;18.792;2022-10-22T08:42:02;19.70;;;10.49;;
54143;SDS011;40050;47.324;18.792;2022-10-22T08:46:39;20.01;;;10.19;;
54143;SDS011;40050;47.324;18.792;2022-10-22T08:48:56;20.20;;;10.19;;
54143;SDS011;40050;47.324;18.792;2022-10-22T08:50:55;18.91;;;10.39;;
54143;SDS011;40050;47.324;18.792;2022-10-22T08:52:55;20.80;;;10.39;;
54143;SDS011;40050;47.324;18.792;2022-10-22T08:55:03;17.16;;;10.09;;
54143;SDS011;40050;47.324;18.792;2022-10-22T08:59:18;14.71;;;9.79;;
54143;SDS011;40050;47.324;18.792;2022-10-22T09:01:37;17.64;;;10.69;;
54143;SDS011;40050;47.324;18.792;2022-10-22T09:03:49;16.27;;;9.89;;
54143;SDS011;40050;47.324;18.792;2022-10-22T09:06:04;18.14;;;10.89;;
54143;SDS011;40050;47.324;18.792;2022-10-22T09:08:03;17.75;;;9.99;;
54143;SDS011;40050;47.324;18.792;2022-10-22T09:10:07;19.21;;;10.39;;
54143;SDS011;40050;47.324;18.792;2022-10-22T09:12:15;16.85;;;10.59;;
54143;SDS011;40050;47.324;18.792;2022-10-22T09:18:40;16.16;;;10.19;;
54143;SDS011;40050;47.324;18.792;2022-10-22T09:20:58;17.75;;;9.99;;
54143;SDS011;40050;47.324;18.792;2022-10-22T09:23:13;21.30;;;10.09;;
54143;SDS011;40050;47.324;18.792;2022-10-22T09:27:16;18.05;;;10.39;;
54143;SDS011;40050;47.324;18.792;2022-10-22T09:29:13;16.66;;;9.79;;
54143;SDS011;40050;47.324;18.792;2022-10-22T09:31:17;19.31;;;10.49;;
54143;SDS011;40050;47.324;18.792;2022-10-22T09:33:20;20.98;;;9.79;;
54143;SDS011;40050;47.324;18.792;2022-10-22T09:35:20;19.98;;;11.28;;
54143;SDS011;40050;47.324;18.792;2022-10-22T09:37:18;21.06;;;10.78;;
54143;SDS011;40050;47.324;18.792;2022-10-22T09:39:23;17.13;;;10.38;;
54143;SDS011;40050;47.324;18.792;2022-10-22T09:41:24;18.31;;;10.68;;
54143;SDS011;40050;47.324;18.792;2022-10-22T09:43:23;16.54;;;10.19;;
54143;SDS011;40050;47.324;18.792;2022-10-22T09:45:26;17.53;;;10.49;;
54143;SDS011;40050;47.324;18.792;2022-10-22T09:47:34;16.24;;;9.99;;
54143;SDS011;40050;47.324;18.792;2022-10-22T09:49:34;18.81;;;10.68;;
54143;SDS011;40050;47.324;18.792;2022-10-22T09:51:49;18.41;;;11.58;;
54143;SDS011;40050;47.324;18.792;2022-10-22T09:53:56;15.19;;;9.99;;
54143;SDS011;40050;47.324;18.792;2022-10-22T09:55:57;17.74;;;10.99;;
54143;SDS011;40050;47.324;18.792;2022-10-22T09:57:59;19.69;;;10.39;;
54143;SDS011;40050;47.324;18.792;2022-10-22T10:00:06;19.12;;;11.19;;
54143;SDS011;40050;47.324;18.792;2022-10-22T10:02:13;18.73;;;11.39;;
54143;SDS011;40050;47.324;18.792;2022-10-22T10:04:07;19.51;;;10.79;;
54143;SDS011;40050;47.324;18.792;2022-10-22T10:06:10;19.99;;;11.38;;
54143;SDS011;40050;47.324;18.792;2022-10-22T10:08:12;20.58;;;10.88;;
54143;SDS011;40050;47.324;18.792;2022-10-22T10:10:20;17.34;;;10.19;;
54143;SDS011;40050;47.324;18.792;2022-10-22T10:12:36;18.04;;;10.79;;
54143;SDS011;40050;47.324;18.792;2022-10-22T10:14:53;19.99;;;10.58;;
54143;SDS011;40050;47.324;18.792;2022-10-22T10:16:57;18.11;;;10.48;;
54143;SDS011;40050;47.324;18.792;2022-10-22T10:23:59;16.23;;;10.18;;
54143;SDS011;40050;47.324;18.792;2022-10-22T10:26:06;16.92;;;10.58;;
54143;SDS011;40050;47.324;18.792;2022-10-22T10:30:22;20.07;;;10.28;;
54143;SDS011;40050;47.324;18.792;2022-10-22T10:35:02;17.90;;;10.88;;
54143;SDS011;40050;47.324;18.792;2022-10-22T10:37:13;18.40;;;11.18;;
54143;SDS011;40050;47.324;18.792;2022-10-22T10:39:27;19.50;;;10.49;;
54143;SDS011;40050;47.324;18.792;2022-10-22T10:50:30;19.97;;;10.58;;
54143;SDS011;40050;47.324;18.792;2022-10-22T10:52:38;15.65;;;9.98;;
54143;SDS011;40050;47.324;18.792;2022-10-22T10:57:08;17.02;;;10.18;;
54143;SDS011;40050;47.324;18.792;2022-10-22T11:01:34;19.07;;;9.98;;
54143;SDS011;40050;47.324;18.792;2022-10-22T11:03:59;21.13;;;10.68;;
54143;SDS011;40050;47.324;18.792;2022-10-22T11:06:08;16.91;;;10.08;;
54143;SDS011;40050;47.324;18.792;2022-10-22T11:10:26;18.08;;;10.58;;
54143;SDS011;40050;47.324;18.792;2022-10-22T11:12:26;22.11;;;10.28;;
54143;SDS011;40050;47.324;18.792;2022-10-22T11:14:40;16.00;;;10.68;;
54143;SDS011;40050;47.324;18.792;2022-10-22T11:16:52;18.76;;;10.28;;
54143;SDS011;40050;47.324;18.792;2022-10-22T11:19:04;17.38;;;9.78;;
54143;SDS011;40050;47.324;18.792;2022-10-22T11:23:30;20.82;;;11.58;;
54143;SDS011;40050;47.324;18.792;2022-10-22T11:25:37;19.16;;;10.88;;
54143;SDS011;40050;47.324;18.792;2022-10-22T11:27:36;18.07;;;10.68;;
54143;SDS011;40050;47.324;18.792;2022-10-22T11:29:40;17.29;;;10.48;;
54143;SDS011;40050;47.324;18.792;2022-10-22T11:31:43;19.34;;;10.98;;
54143;SDS011;40050;47.324;18.792;2022-10-22T11:33:52;21.98;;;10.78;;
54143;SDS011;40050;47.324;18.792;2022-10-22T11:35:54;17.47;;;10.08;;
54143;SDS011;40050;47.324;18.792;2022-10-22T11:37:56;17.80;;;10.08;;
54143;SDS011;40050;47.324;18.792;2022-10-22T11:40:03;19.65;;;10.08;;
54143;SDS011;40050;47.324;18.792;2022-10-22T11:42:03;18.45;;;10.88;;
54143;SDS011;40050;47.324;18.792;2022-10-22T11:44:21;18.47;;;10.38;;
54143;SDS011;40050;47.324;18.792;2022-10-22T11:48:35;18.36;;;10.38;;
54143;SDS011;40050;47.324;18.792;2022-10-22T11:50:54;19.73;;;10.08;;
54143;SDS011;40050;47.324;18.792;2022-10-22T11:59:58;16.61;;;9.58;;
54143;SDS011;40050;47.324;18.792;2022-10-22T12:01:25;21.91;;;10.28;;
54143;SDS011;40050;47.324;18.792;2022-10-22T12:08:11;21.80;;;10.58;;
54143;SDS011;40050;47.324;18.792;2022-10-22T12:10:12;16.99;;;10.18;;
54143;SDS011;40050;47.324;18.792;2022-10-22T12:12:18;17.49;;;10.08;;
54143;SDS011;40050;47.324;18.792;2022-10-22T12:14:55;18.18;;;10.68;;
54143;SDS011;40050;47.324;18.792;2022-10-22T12:16:45;18.56;;;10.98;;
54143;SDS011;40050;47.324;18.792;2022-10-22T12:18:45;22.80;;;11.88;;
54143;SDS011;40050;47.324;18.792;2022-10-22T12:20:50;21.24;;;11.78;;
54143;SDS011;40050;47.324;18.792;2022-10-22T12:22:58;19.84;;;11.48;;
54143;SDS011;40050;47.324;18.792;2022-10-22T12:25:02;19.75;;;11.58;;
54143;SDS011;40050;47.324;18.792;2022-10-22T12:27:03;19.29;;;12.08;;
54143;SDS011;40050;47.324;18.792;2022-10-22T12:29:11;18.39;;;11.48;;
54143;SDS011;40050;47.324;18.792;2022-10-22T12:31:14;21.71;;;12.88;;
54143;SDS011;40050;47.324;18.792;2022-10-22T12:33:21;23.18;;;12.58;;
54143;SDS011;40050;47.324;18.792;2022-10-22T12:35:21;20.53;;;11.68;;
54143;SDS011;40050;47.324;18.792;2022-10-22T12:37:22;25.05;;;13.08;;
54143;SDS011;40050;47.324;18.792;2022-10-22T12:39:25;21.50;;;12.98;;
54143;SDS011;40050;47.324;18.792;2022-10-22T12:41:34;26.40;;;12.68;;
54143;SDS011;40050;47.324;18.792;2022-10-22T12:43:28;24.43;;;13.27;;
54143;SDS011;40050;47.324;18.792;2022-10-22T12:45:28;21.98;;;13.57;;
54143;SDS011;40050;47.324;18.792;2022-10-22T12:47:29;27.88;;;14.17;;
54143;SDS011;40050;47.324;18.792;2022-10-22T12:49:35;23.05;;;13.47;;
54143;SDS011;40050;47.324;18.792;2022-10-22T12:51:34;22.57;;;13.47;;
54143;SDS011;40050;47.324;18.792;2022-10-22T12:53:59;22.28;;;13.77;;
54143;SDS011;40050;47.324;18.792;2022-10-22T12:55:55;23.63;;;13.37;;
54143;SDS011;40050;47.324;18.792;2022-10-22T12:57:55;22.05;;;12.87;;
54143;SDS011;40050;47.324;18.792;2022-10-22T13:00:18;22.33;;;12.67;;